Turner Lake (351) Station Data

Red Flag Warning: No
Fire Weather Zone: 250
SDGE Region: North East
Lat/Lon: 33.226/-117.076

Observations

Time Wind Speed/Gust Temp(F) RH Fuel Moist Fuel Temp(F) Dewpt(F) Tmax(F) Tmin(F) Accum Precip 10-min Precip SL Press(mb)
4/30 12:00am 134 3 G 6 60° 24% - - 23° 81.6° 53.8° - - 865.0
4/29 11:50pm 125 3 G 5 61° 23% - - 23° 81.6° 53.8° - - 865.0
4/29 11:40pm 114 4 G 7 61° 23% - - 23° 81.6° 53.8° - - 865.0
4/29 11:30pm 112 4 G 6 61° 23% - - 23° 81.6° 53.8° - - 865.0
4/29 11:20pm 117 4 G 6 61° 23% - - 23° 81.6° 53.8° - - 865.0
4/29 11:10pm 110 3 G 6 61° 22% - - 22° 81.6° 53.8° - - 865.0
4/29 11:00pm 114 3 G 5 62° 21% - - 22° 81.6° 53.8° - - 865.0
4/29 10:50pm 129 3 G 5 61° 22% - - 22° 81.6° 53.8° - - 865.0
4/29 10:40pm 134 4 G 7 60° 24% - - 23° 81.6° 53.8° - - 866.0
4/29 10:30pm 130 5 G 7 60° 25% - - 24° 81.6° 53.8° - - 866.0
4/29 10:20pm 123 4 G 6 61° 23% - - 23° 81.6° 53.8° - - 866.0
4/29 10:10pm 115 5 G 7 61° 24% - - 24° 81.6° 53.8° - - 866.0
4/29 10:00pm 114 5 G 7 61° 23% - - 24° 81.6° 53.8° - - 866.0
4/29 9:50pm 114 3 G 5 62° 22% - - 23° 81.6° 53.8° - - 865.0
4/29 9:40pm 126 4 G 5 62° 22% - - 23° 81.6° 53.8° - - 866.0
4/29 9:30pm 115 5 G 7 62° 21% - - 22° 81.6° 53.8° - - 865.0
4/29 9:20pm 130 3 G 5 63° 18% - - 19° 81.6° 53.8° - - 864.0
4/29 9:10pm 128 2 G 3 63° 18% - - 18° 81.6° 53.8° - - 865.0
4/29 9:00pm 142 2 G 4 63° 18% - - 19° 81.6° 53.8° - - 865.0
4/29 8:50pm 119 3 G 6 63° 18% - - 19° 81.6° 53.8° - - 865.0
4/29 8:40pm 143 2 G 4 64° 16% - - 18° 81.6° 53.8° - - 865.0
4/29 8:30pm 133 3 G 4 65° 17% - - 19° 81.6° 53.8° - - 865.0
4/29 8:20pm 126 2 G 4 66° 14% - - 16° 81.6° 53.8° - - 865.0
4/29 8:10pm 174 3 G 6 67° 15% - - 17° 81.6° 53.8° - - 865.0
4/29 8:00pm 172 2 G 4 66° 17% - - 20° 81.6° 53.8° - - 866.0
4/29 7:50pm 162 1 G 2 67° 17% - - 21° 81.6° 53.8° - - 867.0
4/29 7:40pm 160 1 G 3 68° 16% - - 21° 81.6° 53.8° - - 867.0
4/29 7:30pm 290 2 G 4 69° 16% - - 20° 81.6° 53.8° - - 867.0
4/29 7:20pm 266 3 G 5 69° 16% - - 21° 81.6° 53.8° - - 868.0
4/29 7:10pm 263 4 G 7 70° 15% - - 20° 81.6° 53.8° - - 868.0
4/29 7:00pm 267 4 G 6 71° 14% - - 19° 81.6° 53.8° - - 868.0
4/29 6:50pm 296 6 G 11 71° 13% - - 17° 81.6° 53.8° - - 868.0
4/29 6:40pm 287 6 G 12 72° 13% - - 17° 81.6° 53.8° - - 868.0
4/29 6:30pm 286 5 G 9 72° 13% - - 19° 81.6° 53.8° - - 869.0
4/29 6:10pm 300 6 G 10 73° 13% - - 19° 81.6° 53.8° - - 869.0
4/29 6:00pm 302 7 G 13 73° 13% - - 19° 81.6° 53.8° - - 869.0
4/29 5:50pm 307 9 G 14 73° 13% - - 19° 81.6° 53.8° - - 870.0
4/29 5:40pm 299 8 G 14 74° 12% - - 19° 81.6° 53.8° - - 870.0
4/29 5:30pm 303 8 G 14 75° 12% - - 19° 81.6° 53.8° - - 870.0
4/29 5:20pm 275 8 G 12 75° 12% - - 18° 81.6° 53.8° - - 870.0
4/29 5:10pm 261 10 G 14 74° 11% - - 17° 81.6° 53.8° - - 870.0
4/29 5:00pm 275 9 G 14 75° 12% - - 18° 81.6° 53.8° - - 870.0
4/29 4:50pm 265 10 G 14 75° 12% - - 20° 81.6° 53.8° - - 871.0
4/29 4:40pm 264 10 G 14 75° 12% - - 18° 81.6° 53.8° - - 870.0
4/29 4:30pm 276 12 G 17 75° 11% - - 17° 81.6° 53.8° - - 870.0
4/29 4:20pm 274 11 G 15 76° 11% - - 17° 81.6° 53.8° - - 870.0
4/29 4:10pm 274 11 G 16 76° 11% - - 17° 81.6° 53.8° - - 870.0
4/29 4:00pm 267 12 G 18 76° 10% - - 16° 81.6° 53.8° - - 870.0
4/29 3:50pm 267 13 G 19 76° 10% - - 15° 81.6° 53.8° - - 870.0
4/29 3:40pm 274 13 G 20 76° 9% - - 14° 81.6° 53.8° - - 869.0
4/29 3:30pm 262 13 G 18 77° 10% - - 15° 81.6° 53.8° - - 870.0
4/29 3:20pm 264 12 G 18 77° 10% - - 16° 81.6° 53.8° - - 870.0
4/29 3:10pm 268 12 G 18 77° 9% - - 15° 81.6° 53.8° - - 869.0
4/29 3:00pm 270 12 G 18 77° 10% - - 16° 81.6° 53.8° - - 870.0
4/29 2:50pm 267 13 G 18 77° 10% - - 16° 81.6° 53.8° - - 870.0
4/29 2:40pm 244 12 G 19 77° 10% - - 17° 81.6° 53.8° - - 870.0
4/29 2:30pm 235 13 G 20 77° 11% - - 18° 81.6° 53.8° - - 871.0
4/29 2:20pm 270 7 G 15 79° 9% - - 16° 81.6° 53.8° - - 871.0
4/29 2:10pm 287 10 G 18 79° 9% - - 16° 81.6° 53.8° - - 871.0
4/29 2:00pm 309 7 G 14 80° 9% - - 15° 81.6° 53.8° - - 870.0
4/29 1:50pm 302 2 G 5 81° 6% - - 81.6° 53.8° - - 869.0
4/29 1:40pm 194 6 G 14 81° 7% - - 10° 81.4° 53.8° - - 869.0
4/29 1:30pm 206 10 G 18 79° 7% - - 10° 81.1° 53.8° - - 869.0
4/29 1:20pm 198 10 G 15 80° 7% - - 10° 81.1° 53.8° - - 869.0
4/29 1:10pm 211 6 G 12 79° 7% - - 80.1° 53.8° - - 869.0
4/29 1:00pm 231 5 G 11 78° 7% - - 80.1° 53.8° - - 869.0
4/29 12:50pm 228 8 G 15 78° 7% - - 10° 80.1° 53.8° - - 869.0
4/29 12:40pm 3 4 G 8 78° 7% - - 79° 53.8° - - 868.0
4/29 12:30pm 0 6 G 12 77° 7% - - 78.4° 53.8° - - 868.0
4/29 12:20pm 315 5 G 11 78° 7% - - 10° 78.4° 53.8° - - 868.0
4/29 12:10pm 323 6 G 15 77° 8% - - 10° 78.4° 53.8° - - 868.0
4/29 12:00pm 322 6 G 13 78° 8% - - 11° 78.4° 53.8° - - 868.0
4/29 11:50am 359 4 G 9 77° 8% - - 10° 78° 53.8° - - 868.0
4/29 11:40am 296 5 G 10 76° 7% - - 76.9° 53.8° - - 868.0
4/29 11:30am 236 3 G 7 76° 8% - - 76.8° 53.8° - - 867.0
4/29 11:20am 351 4 G 9 75° 8% - - 76.8° 53.8° - - 867.0
4/29 11:10am 322 4 G 13 76° 8% - - 10° 76.8° 53.8° - - 867.0
4/29 11:00am 32 4 G 7 75° 8% - - 76.3° 53.8° - - 866.0
4/29 10:50am 11 6 G 12 74° 8% - - 74.6° 53.8° - - 866.0
4/29 10:40am 339 4 G 9 74° 8% - - 74.5° 53.8° - - 865.0
4/29 10:30am 331 3 G 6 73° 8% - - 74.5° 53.8° - - 865.0
4/29 10:20am 217 5 G 10 73° 8% - - 10° 74.5° 53.8° - - 865.0
4/29 10:10am 222 5 G 9 73° 9% - - 10° 73.6° 53.8° - - 865.0
4/29 10:00am 195 5 G 9 73° 9% - - 11° 73.6° 53.8° - - 866.0
4/29 9:50am 223 3 G 5 72° 9% - - 11° 72.3° 53.8° - - 865.0
4/29 9:40am 228 2 G 5 71° 10% - - 11° 71.8° 53.8° - - 865.0
4/29 9:30am 335 3 G 6 71° 9% - - 71.7° 53.8° - - 864.0
4/29 9:20am 323 4 G 8 71° 9% - - 71.4° 53.8° - - 864.0
4/29 9:10am 315 3 G 7 70° 11% - - 14° 70.5° 53.8° - - 865.0
4/29 9:00am 2 3 G 6 69° 12% - - 13° 69.7° 53.8° - - 864.0
4/29 8:50am 342 2 G 5 67° 13% - - 15° 68.1° 53.8° - - 864.0
4/29 8:40am 333 2 G 4 66° 14% - - 15° 66.8° 53.8° - - 864.0
4/29 8:30am 268 2 G 4 66° 14% - - 15° 66.6° 53.8° - - 864.0
4/29 8:20am 309 2 G 4 65° 14% - - 14° 65.4° 53.8° - - 863.0
4/29 8:10am 259 1 G 2 64° 15% - - 15° 65.1° 53.8° - - 863.0
4/29 8:00am 233 2 G 4 63° 16% - - 17° 65° 53.8° - - 863.0
4/29 7:50am 204 1 G 3 64° 14% - - 14° 65° 53.8° - - 862.0
4/29 7:40am 335 3 G 7 62° 14% - - 13° 63.3° 53.8° - - 862.0
4/29 7:30am 108 2 G 5 62° 14% - - 13° 63° 53.8° - - 862.0
4/29 7:20am 144 3 G 5 60° 17% - - 15° 61.3° 53.8° - - 862.0
4/29 7:10am 77 3 G 6 60° 16% - - 13° 61° 53.8° - - 862.0
4/29 7:00am 147 2 G 4 59° 18% - - 16° 60° 53.8° - - 862.0
4/29 6:50am 315 4 G 10 59° 15% - - 11° 60° 53.8° - - 861.0
4/29 6:40am 27 2 G 7 59° 14% - - 10° 60° 53.8° - - 860.0
4/29 6:30am 85 2 G 4 58° 16% - - 12° 59.9° 53.8° - - 861.0
4/29 6:20am 48 2 G 4 58° 16% - - 12° 59.9° 53.8° - - 861.0
4/29 6:10am 359 2 G 4 59° 16% - - 12° 59.9° 53.8° - - 861.0
4/29 6:00am 354 4 G 8 59° 15% - - 12° 59.9° 53.8° - - 861.0
4/29 5:50am 23 2 G 4 59° 17% - - 13° 59.9° 53.8° - - 861.0
4/29 5:40am 100 3 G 6 57° 21% - - 17° 59.9° 53.8° - - 862.0
4/29 5:30am 280 2 G 4 57° 21% - - 18° 59.9° 53.8° - - 863.0
4/29 5:20am 141 2 G 4 56° 23% - - 19° 59.9° 53.8° - - 863.0
4/29 5:10am 168 3 G 4 55° 26% - - 21° 59.9° 53.8° - - 864.0
4/29 5:00am 145 2 G 4 56° 25% - - 20° 59.9° 53.8° - - 864.0
4/29 4:50am 153 3 G 6 55° 27% - - 21° 59.9° 53.8° - - 865.0
4/29 4:40am 130 2 G 5 56° 26% - - 21° 59.9° 53.9° - - 865.0
4/29 4:30am 110 2 G 4 58° 24% - - 21° 59.9° 53.9° - - 864.0
4/29 4:20am 198 1 G 4 59° 23% - - 21° 59.9° 53.9° - - 864.0
4/29 4:10am 183 2 G 4 59° 26% - - 24° 59.3° 53.9° - - 865.0
4/29 4:00am 166 1 G 3 58° 28% - - 25° 59.2° 53.9° - - 866.0
4/29 3:50am 144 2 G 4 57° 31% - - 26° 59.2° 53.9° - - 867.0
4/29 3:40am 44 1 G 2 58° 30% - - 26° 59.2° 53.9° - - 867.0
4/29 3:30am 187 2 G 3 58° 32% - - 28° 59.2° 53.9° - - 867.0
4/29 3:20am 153 2 G 3 57° 34% - - 28° 59.2° 53.9° - - 868.0
4/29 3:10am 146 2 G 3 57° 38% - - 32° 59.2° 53.9° - - 870.0
4/29 3:00am 109 2 G 3 56° 42% - - 33° 59.2° 53.9° - - 871.0
4/29 2:50am 102 1 G 4 55° 46% - - 35° 59.2° 53.9° - - 873.0
4/29 2:40am 28 1 G 3 57° 44% - - 35° 59.2° 53.9° - - 872.0
4/29 2:30am 98 3 G 6 56° 46% - - 36° 59.2° 53.9° - - 873.0
4/29 2:20am 119 3 G 6 56° 48% - - 37° 59.2° 53.9° - - 874.0
4/29 2:10am 121 4 G 6 55° 53% - - 38° 59.2° 53.9° - - 875.0
4/29 2:00am 122 2 G 6 55° 51% - - 38° 59.2° 54.4° - - 875.0
4/29 1:50am 119 4 G 7 55° 53% - - 38° 59.2° 54.4° - - 875.0
4/29 1:40am 109 5 G 7 55° 51% - - 38° 59.2° 54.4° - - 875.0
4/29 1:30am 170 3 G 8 56° 49% - - 37° 59.2° 54.4° - - 874.0
4/29 1:20am 136 2 G 3 58° 46% - - 37° 59.2° 54.4° - - 873.0
4/29 1:10am 155 3 G 3 56° 50% - - 38° 59.2° 54.4° - - 875.0
4/29 1:00am 148 2 G 3 55° 53% - - 38° 59.2° 54.4° - - 876.0
4/29 12:50am 251 2 G 4 56° 50% - - 38° 59.2° 54.4° - - 875.0
4/29 12:40am 73 2 G 5 56° 51% - - 38° 59.2° 54.4° - - 875.0
4/29 12:30am 146 4 G 5 55° 53% - - 38° 59.2° 54.4° - - 876.0
4/29 12:20am 196 2 G 5 56° 50% - - 38° 59.2° 55.4° - - 875.0
4/29 12:10am 61 2 G 7 58° 46% - - 38° 59.2° 57.4° - - 874.0
4/29 12:00am 114 5 G 9 58° 46% - - 38° 76.5° 51.4° - - 874.0
4/28 11:50pm 117 5 G 9 58° 46% - - 38° 76.5° 51.4° - - 874.0
4/28 11:40pm 110 3 G 5 57° 49% - - 38° 76.5° 51.4° - - 875.0
4/28 11:30pm 119 6 G 9 56° 52% - - 38° 76.5° 51.4° - - 876.0
4/28 11:20pm 154 4 G 6 57° 49% - - 38° 76.5° 51.4° - - 875.0
4/28 11:10pm 144 2 G 4 58° 47% - - 39° 76.5° 51.4° - - 874.0
4/28 11:00pm 5 2 G 4 59° 47% - - 39° 76.5° 51.4° - - 874.0
4/28 10:50pm 5 1 G 3 59° 46% - - 38° 76.5° 51.4° - - 874.0
4/28 10:40pm 167 1 G 1 59° 47% - - 38° 76.5° 51.4° - - 874.0
4/28 10:30pm 152 1 G 2 59° 46% - - 38° 76.5° 51.4° - - 874.0
4/28 10:20pm 102 1 G 2 59° 47% - - 39° 76.5° 51.4° - - 875.0
4/28 10:10pm 87 1 G 2 60° 45% - - 39° 76.5° 51.4° - - 874.0
4/28 10:00pm 27 1 G 2 60° 48% - - 40° 76.5° 51.4° - - 875.0
4/28 9:50pm 155 1 G 4 59° 48% - - 40° 76.5° 51.4° - - 875.0
4/28 9:40pm 135 4 G 7 59° 48% - - 39° 76.5° 51.4° - - 875.0
4/28 9:30pm 127 5 G 9 59° 47% - - 39° 76.5° 51.4° - - 875.0
4/28 9:20pm 121 7 G 10 60° 47% - - 39° 76.5° 51.4° - - 875.0
4/28 9:10pm 128 3 G 7 60° 46% - - 39° 76.5° 51.4° - - 875.0
4/28 9:00pm 119 4 G 7 60° 45% - - 39° 76.5° 51.4° - - 875.0
4/28 8:50pm 110 2 G 4 61° 43% - - 39° 76.5° 51.4° - - 874.0
4/28 8:40pm 122 4 G 5 61° 43% - - 38° 76.5° 51.4° - - 874.0
4/28 8:30pm 202 2 G 5 62° 43% - - 39° 76.5° 51.4° - - 874.0
4/28 8:20pm 197 2 G 5 61° 44% - - 39° 76.5° 51.4° - - 875.0
4/28 8:10pm 137 3 G 6 61° 43% - - 39° 76.5° 51.4° - - 875.0
4/28 8:00pm 114 3 G 6 62° 43% - - 39° 76.5° 51.4° - - 875.0
4/28 7:50pm 266 2 G 4 62° 44% - - 40° 76.5° 51.4° - - 875.0
4/28 7:40pm 173 5 G 9 62° 44% - - 40° 76.5° 51.4° - - 876.0
4/28 7:30pm 200 5 G 10 63° 42% - - 40° 76.5° 51.4° - - 875.0
4/28 7:20pm 220 3 G 5 64° 41% - - 40° 76.5° 51.4° - - 875.0
4/28 7:10pm 224 4 G 7 64° 40% - - 40° 76.5° 51.4° - - 875.0
4/28 7:00pm 229 4 G 6 65° 39% - - 39° 76.5° 51.4° - - 875.0
4/28 6:50pm 256 4 G 6 65° 37% - - 38° 76.5° 51.4° - - 874.0
4/28 6:40pm 245 5 G 7 66° 36% - - 38° 76.5° 51.4° - - 874.0
4/28 6:30pm 292 4 G 8 66° 34% - - 37° 76.5° 51.4° - - 874.0
4/28 6:20pm 247 5 G 9 66° 34% - - 37° 76.5° 51.4° - - 874.0
4/28 6:10pm 260 7 G 11 67° 31% - - 35° 76.5° 51.4° - - 873.0
4/28 6:00pm 279 7 G 12 67° 29% - - 34° 76.5° 51.4° - - 873.0